Time;durP1;ratioP1;P1;durP2;ratioP2;P2;SDS_P1;SDS_P2;PMS_P1;PMS_P2;Temp;Humidity;BMP_temperature;BMP_pressure;BME280_temperature;BME280_humidity;BME280_pressure;Samples;Min_cycle;Max_cycle;Signal;HPM_P1;HPM_P2
2024/02/24 00:00:43;;;;;;;2.45;0.90;;;;;;;;;;5032319;28;20049;-62
2024/02/24 00:03:10;;;;;;;1.77;1.00;;;;;;;;;;5032918;28;20060;-60
2024/02/24 00:05:36;;;;;;;1.92;0.80;;;;;;;;;;5033215;28;20057;-61
2024/02/24 00:08:03;;;;;;;2.85;0.90;;;;;;;;;;5032404;28;20041;-61
2024/02/24 00:10:31;;;;;;;2.10;1.00;;;;;;;;;;5032936;28;20393;-61
2024/02/24 00:12:58;;;;;;;2.45;0.90;;;;;;;;;;5032889;28;20060;-60
2024/02/24 00:15:25;;;;;;;1.50;0.80;;;;;;;;;;5033035;28;20412;-61
2024/02/24 00:17:52;;;;;;;2.15;0.90;;;;;;;;;;5033243;28;20061;-61
2024/02/24 00:20:19;;;;;;;1.88;0.77;;;;;;;;;;5033008;28;20060;-62
2024/02/24 00:22:46;;;;;;;1.75;0.73;;;;;;;;;;5033010;28;20049;-62
2024/02/24 00:25:13;;;;;;;2.63;0.82;;;;;;;;;;5032931;28;20049;-62
2024/02/24 00:27:41;;;;;;;2.60;1.13;;;;;;;;;;5032920;28;20488;-62
2024/02/24 00:30:09;;;;;;;1.45;0.90;;;;;;;;;;5032405;28;20054;-61
2024/02/24 00:32:36;;;;;;;2.25;0.80;;;;;;;;;;5032874;28;20473;-61
2024/02/24 00:35:04;;;;;;;1.55;0.70;;;;;;;;;;5032387;28;20053;-61
2024/02/24 00:37:31;;;;;;;2.30;0.80;;;;;;;;;;5032195;28;20057;-61
2024/02/24 00:39:58;;;;;;;2.65;0.90;;;;;;;;;;5032493;28;20057;-61
2024/02/24 00:42:25;;;;;;;1.63;0.95;;;;;;;;;;5032624;28;20053;-61
2024/02/24 00:44:53;;;;;;;2.42;1.13;;;;;;;;;;5032181;28;20124;-61
2024/02/24 00:47:20;;;;;;;3.38;1.10;;;;;;;;;;5032451;28;20053;-61
2024/02/24 00:49:47;;;;;;;2.53;1.08;;;;;;;;;;5032590;28;20058;-61
2024/02/24 00:52:14;;;;;;;3.17;0.90;;;;;;;;;;5032551;28;20053;-61
2024/02/24 00:54:40;;;;;;;3.22;1.10;;;;;;;;;;5032489;28;20057;-61
2024/02/24 00:57:07;;;;;;;2.45;1.05;;;;;;;;;;5032363;28;20076;-61
2024/02/24 00:59:34;;;;;;;2.65;1.20;;;;;;;;;;5031873;28;20061;-61
2024/02/24 01:02:02;;;;;;;2.63;1.00;;;;;;;;;;5032319;28;20064;-61
2024/02/24 01:04:29;;;;;;;3.17;1.13;;;;;;;;;;5032346;28;20049;-61
2024/02/24 01:06:56;;;;;;;2.17;1.10;;;;;;;;;;5032130;28;20058;-61
2024/02/24 01:09:23;;;;;;;2.55;0.90;;;;;;;;;;5031531;28;20053;-61
2024/02/24 01:11:50;;;;;;;1.73;1.00;;;;;;;;;;5034017;28;20057;-61
2024/02/24 01:14:17;;;;;;;2.13;1.15;;;;;;;;;;5035873;28;20058;-61
2024/02/24 01:16:44;;;;;;;2.15;1.00;;;;;;;;;;5036010;28;20053;-61
2024/02/24 01:19:12;;;;;;;2.33;1.23;;;;;;;;;;5035954;28;20057;-61
2024/02/24 01:21:41;;;;;;;2.05;1.30;;;;;;;;;;5035729;28;20069;-61
2024/02/24 01:24:07;;;;;;;2.50;1.15;;;;;;;;;;5036104;28;20080;-61
2024/02/24 01:26:34;;;;;;;1.70;1.00;;;;;;;;;;5035792;28;20072;-61
2024/02/24 01:29:01;;;;;;;1.80;1.10;;;;;;;;;;5035798;28;20431;-61
2024/02/24 01:31:28;;;;;;;1.98;1.13;;;;;;;;;;5035352;28;20060;-61
2024/02/24 01:33:54;;;;;;;2.45;1.17;;;;;;;;;;5035606;28;20054;-61
2024/02/24 01:36:23;;;;;;;2.20;1.20;;;;;;;;;;5035571;28;20061;-61
2024/02/24 01:38:49;;;;;;;3.97;1.30;;;;;;;;;;5035777;28;20056;-61
2024/02/24 01:41:16;;;;;;;2.80;1.27;;;;;;;;;;5035578;28;20065;-61
2024/02/24 01:43:43;;;;;;;2.40;1.13;;;;;;;;;;5035743;28;20064;-61
2024/02/24 01:46:13;;;;;;;2.88;1.20;;;;;;;;;;5035349;28;20053;-61
2024/02/24 01:48:39;;;;;;;;;;;;;;;;;;5036232;28;20049;-61
2024/02/24 01:51:07;;;;;;;2.95;0.93;;;;;;;;;;5035458;28;19921;-61
2024/02/24 01:53:36;;;;;;;3.08;1.17;;;;;;;;;;5035745;28;20377;-61
2024/02/24 01:56:06;;;;;;;2.30;1.00;;;;;;;;;;5035664;28;20061;-61
2024/02/24 01:58:35;;;;;;;2.88;1.30;;;;;;;;;;5033382;28;20061;-61
2024/02/24 02:01:02;;;;;;;2.37;1.13;;;;;;;;;;5035210;28;20079;-61
2024/02/24 02:03:29;;;;;;;1.90;1.20;;;;;;;;;;5035410;28;20489;-62
2024/02/24 02:05:56;;;;;;;1.70;1.10;;;;;;;;;;5035138;28;20057;-61
2024/02/24 02:08:22;;;;;;;2.90;1.20;;;;;;;;;;5035376;28;20076;-61
2024/02/24 02:10:52;;;;;;;2.10;0.90;;;;;;;;;;5035294;28;20053;-61
2024/02/24 02:13:20;;;;;;;2.10;1.15;;;;;;;;;;5035415;28;20053;-61
2024/02/24 02:15:47;;;;;;;2.60;1.25;;;;;;;;;;5035376;28;20435;-61
2024/02/24 02:18:14;;;;;;;3.08;1.40;;;;;;;;;;5035221;28;20059;-61
2024/02/24 02:20:41;;;;;;;1.60;1.10;;;;;;;;;;5035351;28;20053;-61
2024/02/24 02:23:09;;;;;;;3.47;1.30;;;;;;;;;;5034444;28;20060;-61
2024/02/24 02:25:36;;;;;;;2.00;1.20;;;;;;;;;;5034996;28;20064;-61
2024/02/24 02:28:03;;;;;;;2.50;1.10;;;;;;;;;;5035325;28;20502;-61
2024/02/24 02:30:30;;;;;;;1.70;1.10;;;;;;;;;;5035214;28;20057;-61
2024/02/24 02:32:57;;;;;;;1.73;1.23;;;;;;;;;;5035300;28;20057;-61
2024/02/24 02:35:23;;;;;;;2.03;1.30;;;;;;;;;;5035136;28;20057;-61
2024/02/24 02:37:50;;;;;;;1.90;1.30;;;;;;;;;;5034710;28;20077;-61
2024/02/24 02:40:19;;;;;;;3.88;1.52;;;;;;;;;;5035051;28;20053;-61
2024/02/24 02:42:46;;;;;;;2.13;1.20;;;;;;;;;;5034907;28;20045;-61
2024/02/24 02:45:12;;;;;;;3.60;1.50;;;;;;;;;;5037304;28;20075;-61
2024/02/24 02:47:39;;;;;;;2.28;1.20;;;;;;;;;;5054666;28;20057;-61
2024/02/24 02:50:07;;;;;;;2.30;1.45;;;;;;;;;;5054748;28;20057;-61
2024/02/24 02:52:34;;;;;;;3.28;1.52;;;;;;;;;;5054887;28;20059;-62
2024/02/24 02:55:01;;;;;;;3.33;1.40;;;;;;;;;;5054341;28;20064;-61
2024/02/24 02:57:29;;;;;;;2.17;1.08;;;;;;;;;;5054715;28;20052;-61
2024/02/24 02:59:55;;;;;;;2.80;1.27;;;;;;;;;;5054417;28;20053;-61
2024/02/24 03:02:22;;;;;;;2.55;1.30;;;;;;;;;;5054552;28;20439;-61
2024/02/24 03:04:49;;;;;;;2.97;1.40;;;;;;;;;;5054090;28;20053;-61
2024/02/24 03:07:16;;;;;;;2.42;1.17;;;;;;;;;;5054282;28;20103;-61
2024/02/24 03:09:46;;;;;;;2.72;1.40;;;;;;;;;;5054116;28;20385;-61
2024/02/24 03:12:13;;;;;;;2.05;1.30;;;;;;;;;;5054373;28;20060;-61
2024/02/24 03:14:41;;;;;;;1.83;1.00;;;;;;;;;;5054175;28;20419;-61
2024/02/24 03:17:08;;;;;;;1.85;1.00;;;;;;;;;;5054254;28;20479;-61
2024/02/24 03:19:35;;;;;;;2.20;1.20;;;;;;;;;;5053816;28;20053;-61
2024/02/24 03:22:02;;;;;;;2.05;1.30;;;;;;;;;;5054162;28;20484;-61
2024/02/24 03:24:29;;;;;;;2.80;1.40;;;;;;;;;;5053769;28;20144;-61
2024/02/24 03:26:56;;;;;;;2.80;1.30;;;;;;;;;;5053808;28;20056;-61
2024/02/24 03:29:22;;;;;;;4.05;1.20;;;;;;;;;;5053616;28;20049;-61
2024/02/24 03:31:50;;;;;;;2.10;1.20;;;;;;;;;;5053476;28;20053;-61
2024/02/24 03:34:17;;;;;;;2.17;1.50;;;;;;;;;;5052934;28;20052;-61
2024/02/24 03:36:44;;;;;;;2.67;1.30;;;;;;;;;;5053298;28;20056;-61
2024/02/24 03:39:11;;;;;;;2.25;1.20;;;;;;;;;;5053354;28;20045;-61
2024/02/24 03:41:38;;;;;;;2.00;1.10;;;;;;;;;;5053627;28;20373;-61
2024/02/24 03:44:05;;;;;;;2.33;1.20;;;;;;;;;;5053309;28;20052;-61
2024/02/24 03:46:32;;;;;;;1.98;1.23;;;;;;;;;;5053186;28;20060;-61
2024/02/24 03:49:00;;;;;;;1.95;1.10;;;;;;;;;;5053471;28;20093;-61
2024/02/24 03:51:27;;;;;;;1.40;1.02;;;;;;;;;;5053466;28;20483;-61
2024/02/24 03:53:53;;;;;;;2.10;0.90;;;;;;;;;;5053142;28;20060;-61
2024/02/24 03:56:20;;;;;;;1.50;1.00;;;;;;;;;;5053425;28;20400;-61
2024/02/24 03:58:47;;;;;;;1.67;0.90;;;;;;;;;;5053094;28;20056;-61
2024/02/24 04:01:13;;;;;;;1.40;0.98;;;;;;;;;;5053248;28;20052;-61
2024/02/24 04:03:40;;;;;;;1.58;1.00;;;;;;;;;;5053294;28;20522;-61
2024/02/24 04:06:09;;;;;;;1.67;0.90;;;;;;;;;;5053130;28;20056;-61
2024/02/24 04:08:36;;;;;;;2.20;1.20;;;;;;;;;;5052674;28;20048;-61
2024/02/24 04:11:04;;;;;;;1.85;0.93;;;;;;;;;;5052746;28;20053;-60
2024/02/24 04:13:31;;;;;;;2.88;0.98;;;;;;;;;;5053077;28;20060;-61
2024/02/24 04:15:58;;;;;;;2.03;1.00;;;;;;;;;;5052914;28;20517;-61
2024/02/24 04:18:24;;;;;;;1.95;1.00;;;;;;;;;;5052956;28;20056;-61
2024/02/24 04:20:51;;;;;;;1.63;0.88;;;;;;;;;;5052819;28;20053;-61
2024/02/24 04:23:19;;;;;;;1.83;1.10;;;;;;;;;;5053035;28;20060;-61
2024/02/24 04:25:46;;;;;;;1.80;0.90;;;;;;;;;;5052758;28;20049;-61
2024/02/24 04:28:13;;;;;;;2.05;0.90;;;;;;;;;;5052755;28;20183;-61
2024/02/24 04:30:40;;;;;;;2.65;0.90;;;;;;;;;;5052379;28;20052;-61
2024/02/24 04:33:07;;;;;;;1.60;0.90;;;;;;;;;;5052959;28;20415;-61
2024/02/24 04:35:34;;;;;;;2.10;1.05;;;;;;;;;;5052785;28;20079;-61
2024/02/24 04:38:05;;;;;;;1.50;0.90;;;;;;;;;;5052885;28;20377;-61
2024/02/24 04:40:34;;;;;;;1.60;0.82;;;;;;;;;;5052707;28;20045;-61
2024/02/24 04:43:01;;;;;;;2.10;0.90;;;;;;;;;;5052204;28;20066;-61
2024/02/24 04:45:28;;;;;;;1.75;0.90;;;;;;;;;;5051694;28;20056;-61
2024/02/24 04:47:55;;;;;;;2.42;1.10;;;;;;;;;;5051812;28;20056;-61
2024/02/24 04:50:22;;;;;;;1.75;1.23;;;;;;;;;;5052054;28;20060;-61
2024/02/24 04:52:49;;;;;;;2.03;1.00;;;;;;;;;;5052417;28;20060;-61
2024/02/24 04:55:16;;;;;;;1.52;0.80;;;;;;;;;;5052279;28;20056;-60
2024/02/24 04:57:44;;;;;;;2.63;1.00;;;;;;;;;;5052528;28;20052;-61
2024/02/24 05:00:11;;;;;;;1.77;0.90;;;;;;;;;;5051998;28;20053;-61
2024/02/24 05:02:38;;;;;;;1.58;0.85;;;;;;;;;;5052376;28;20060;-61
2024/02/24 05:05:05;;;;;;;1.63;1.10;;;;;;;;;;5052118;28;20056;-61
2024/02/24 05:07:33;;;;;;;1.92;0.90;;;;;;;;;;5052437;28;20440;-61
2024/02/24 05:10:00;;;;;;;1.30;0.70;;;;;;;;;;5051783;28;20052;-61
2024/02/24 05:12:26;;;;;;;1.92;0.90;;;;;;;;;;5052218;28;20060;-61
2024/02/24 05:14:54;;;;;;;1.83;0.90;;;;;;;;;;5052097;28;20411;-61
2024/02/24 05:17:21;;;;;;;1.98;0.80;;;;;;;;;;5052265;28;20057;-60
2024/02/24 05:19:48;;;;;;;1.58;0.80;;;;;;;;;;5051989;28;20049;-61
2024/02/24 05:22:15;;;;;;;1.38;0.80;;;;;;;;;;5051855;28;20057;-61
2024/02/24 05:24:42;;;;;;;2.35;0.70;;;;;;;;;;5051821;28;20060;-61
2024/02/24 05:27:09;;;;;;;1.50;0.80;;;;;;;;;;5052130;28;20479;-61
2024/02/24 05:29:36;;;;;;;1.30;0.80;;;;;;;;;;5051926;28;20049;-61
2024/02/24 05:32:04;;;;;;;1.10;0.60;;;;;;;;;;5051875;28;20048;-60
2024/02/24 05:34:31;;;;;;;1.52;0.82;;;;;;;;;;5052219;28;20060;-61
2024/02/24 05:36:58;;;;;;;1.98;0.82;;;;;;;;;;5052056;28;20060;-61
2024/02/24 05:39:25;;;;;;;1.92;0.90;;;;;;;;;;5051912;28;20384;-61
2024/02/24 05:41:52;;;;;;;2.55;0.95;;;;;;;;;;5051792;28;20049;-61
2024/02/24 05:44:19;;;;;;;2.30;0.90;;;;;;;;;;5051945;28;20057;-61
2024/02/24 05:46:46;;;;;;;1.30;0.80;;;;;;;;;;5051714;28;20514;-60
2024/02/24 05:49:14;;;;;;;1.90;1.10;;;;;;;;;;5051856;28;20060;-61
2024/02/24 05:51:43;;;;;;;1.30;0.82;;;;;;;;;;5051872;28;20056;-61
2024/02/24 05:54:10;;;;;;;1.60;0.82;;;;;;;;;;5051861;28;20059;-61
2024/02/24 05:56:36;;;;;;;1.60;1.00;;;;;;;;;;5051727;28;20053;-61
2024/02/24 05:59:03;;;;;;;1.60;0.82;;;;;;;;;;5053889;28;20483;-60
2024/02/24 06:01:30;;;;;;;1.85;1.00;;;;;;;;;;5055060;28;20049;-60
2024/02/24 06:03:57;;;;;;;2.35;1.17;;;;;;;;;;5055222;28;20060;-61
2024/02/24 06:06:25;;;;;;;2.60;1.27;;;;;;;;;;5055216;28;20431;-61
2024/02/24 06:08:52;;;;;;;2.45;1.02;;;;;;;;;;5055397;28;20060;-61
2024/02/24 06:11:18;;;;;;;2.65;1.20;;;;;;;;;;5055399;28;20057;-62
2024/02/24 06:13:46;;;;;;;2.17;1.02;;;;;;;;;;5055073;28;20060;-61
2024/02/24 06:16:12;;;;;;;2.10;1.20;;;;;;;;;;5055364;28;20506;-61
2024/02/24 06:18:39;;;;;;;2.17;1.27;;;;;;;;;;5054990;28;20057;-61
2024/02/24 06:21:07;;;;;;;3.05;1.25;;;;;;;;;;5055190;28;20049;-61
2024/02/24 06:23:35;;;;;;;2.13;1.30;;;;;;;;;;5054960;28;20060;-61
2024/02/24 06:26:02;;;;;;;1.92;1.10;;;;;;;;;;5055109;28;20053;-60
2024/02/24 06:28:29;;;;;;;2.33;1.20;;;;;;;;;;5055121;28;20052;-61
2024/02/24 06:30:57;;;;;;;2.03;1.20;;;;;;;;;;5054896;28;20056;-61
2024/02/24 06:33:24;;;;;;;2.10;1.30;;;;;;;;;;5055055;28;20053;-61
2024/02/24 06:35:51;;;;;;;2.05;1.05;;;;;;;;;;5054754;28;20060;-61
2024/02/24 06:38:18;;;;;;;3.90;1.30;;;;;;;;;;5054604;28;20052;-61
2024/02/24 06:40:46;;;;;;;1.88;1.20;;;;;;;;;;5054683;28;20044;-60
2024/02/24 06:43:13;;;;;;;3.10;1.40;;;;;;;;;;5054456;28;20053;-61
2024/02/24 06:45:40;;;;;;;3.85;1.48;;;;;;;;;;5054300;28;20059;-60
2024/02/24 06:48:07;;;;;;;2.50;1.10;;;;;;;;;;5054863;28;20506;-60
2024/02/24 06:50:33;;;;;;;2.28;1.10;;;;;;;;;;5054724;28;20131;-59
2024/02/24 06:53:00;;;;;;;1.95;1.20;;;;;;;;;;5054768;28;20056;-60
2024/02/24 06:55:27;;;;;;;1.73;1.30;;;;;;;;;;5054529;28;20053;-60
2024/02/24 06:57:55;;;;;;;1.48;1.00;;;;;;;;;;5054613;28;20045;-60
2024/02/24 07:00:23;;;;;;;1.70;1.20;;;;;;;;;;5054592;28;20056;-60
2024/02/24 07:02:50;;;;;;;3.45;1.40;;;;;;;;;;5054734;28;20053;-60
2024/02/24 07:05:17;;;;;;;2.78;1.17;;;;;;;;;;5054065;28;20053;-60
2024/02/24 07:07:44;;;;;;;2.22;1.10;;;;;;;;;;5054449;28;20060;-61
2024/02/24 07:10:10;;;;;;;2.78;1.52;;;;;;;;;;5014132;28;20046;-59
2024/02/24 07:12:37;;;;;;;2.20;1.30;;;;;;;;;;5014723;28;20058;-60
2024/02/24 07:15:06;;;;;;;2.17;1.38;;;;;;;;;;5014557;28;20054;-60
2024/02/24 07:17:33;;;;;;;1.50;1.00;;;;;;;;;;5014476;28;20065;-60
2024/02/24 07:20:00;;;;;;;3.45;1.40;;;;;;;;;;5013921;28;20061;-60
2024/02/24 07:22:27;;;;;;;2.83;1.20;;;;;;;;;;5014229;28;20064;-60
2024/02/24 07:24:54;;;;;;;2.03;1.10;;;;;;;;;;5014086;28;20058;-60
2024/02/24 07:27:20;;;;;;;3.17;1.13;;;;;;;;;;5014704;28;20061;-60
2024/02/24 07:29:47;;;;;;;2.03;1.23;;;;;;;;;;5014269;28;20049;-60
2024/02/24 07:32:15;;;;;;;2.10;1.20;;;;;;;;;;5014062;28;20409;-59
2024/02/24 07:34:42;;;;;;;1.95;1.08;;;;;;;;;;5013612;28;20057;-62
2024/02/24 07:37:09;;;;;;;2.40;1.25;;;;;;;;;;5013898;28;20068;-59
2024/02/24 07:39:36;;;;;;;1.90;1.20;;;;;;;;;;5013609;28;20516;-60
2024/02/24 07:42:03;;;;;;;2.95;1.20;;;;;;;;;;5013930;28;20054;-62
2024/02/24 07:44:30;;;;;;;2.92;1.20;;;;;;;;;;5013315;28;20049;-62
2024/02/24 07:46:56;;;;;;;3.47;1.10;;;;;;;;;;5013690;28;20069;-62
2024/02/24 07:49:25;;;;;;;1.88;1.23;;;;;;;;;;5014000;28;20053;-62
2024/02/24 07:51:51;;;;;;;2.38;1.10;;;;;;;;;;5013219;28;20481;-61
2024/02/24 07:54:18;;;;;;;3.08;1.20;;;;;;;;;;5012542;28;20053;-61
2024/02/24 07:56:45;;;;;;;1.85;1.10;;;;;;;;;;5012202;28;20054;-61
2024/02/24 07:59:12;;;;;;;2.28;1.05;;;;;;;;;;5013199;28;20412;-61
2024/02/24 08:01:38;;;;;;;2.03;1.00;;;;;;;;;;5013626;28;20412;-59
2024/02/24 08:04:05;;;;;;;2.80;1.00;;;;;;;;;;5013570;28;20054;-61
2024/02/24 08:06:33;;;;;;;3.03;1.20;;;;;;;;;;5013441;28;20061;-61
2024/02/24 08:09:00;;;;;;;2.85;1.20;;;;;;;;;;5023738;28;20508;-61
2024/02/24 08:11:29;;;;;;;2.13;1.10;;;;;;;;;;5033116;28;20053;-61
2024/02/24 08:13:56;;;;;;;1.70;1.10;;;;;;;;;;5033169;28;20056;-61
2024/02/24 08:16:23;;;;;;;2.17;1.08;;;;;;;;;;5033188;28;20799;-61
2024/02/24 08:18:50;;;;;;;2.15;1.17;;;;;;;;;;5032895;28;20422;-61
2024/02/24 08:21:16;;;;;;;1.58;0.90;;;;;;;;;;5032289;28;20498;-61
2024/02/24 08:23:45;;;;;;;1.70;1.00;;;;;;;;;;5032628;28;20049;-61
2024/02/24 08:26:11;;;;;;;1.40;0.80;;;;;;;;;;5032545;28;20053;-61
2024/02/24 08:28:38;;;;;;;2.40;1.17;;;;;;;;;;5032547;28;20053;-61
2024/02/24 08:31:05;;;;;;;2.92;1.10;;;;;;;;;;5032329;28;20057;-61
2024/02/24 08:33:32;;;;;;;1.45;0.80;;;;;;;;;;5032588;28;20472;-61
2024/02/24 08:35:58;;;;;;;2.60;0.80;;;;;;;;;;5032531;28;20053;-61
2024/02/24 08:38:27;;;;;;;1.10;0.70;;;;;;;;;;5032230;28;20413;-60
2024/02/24 08:40:55;;;;;;;1.42;0.80;;;;;;;;;;5032599;28;20045;-61
2024/02/24 08:43:22;;;;;;;2.55;0.90;;;;;;;;;;5032250;28;20056;-61
2024/02/24 08:45:51;;;;;;;3.20;0.98;;;;;;;;;;5039681;28;20059;-61
2024/02/24 08:48:18;;;;;;;2.00;0.93;;;;;;;;;;5052057;28;20060;-61
2024/02/24 08:50:45;;;;;;;1.77;0.80;;;;;;;;;;5051576;28;20056;-60
2024/02/24 08:53:12;;;;;;;1.48;0.88;;;;;;;;;;5052324;28;20484;-60
2024/02/24 08:55:39;;;;;;;1.63;0.90;;;;;;;;;;5052026;28;20484;-60
2024/02/24 08:58:07;;;;;;;2.35;1.10;;;;;;;;;;5052318;28;20052;-61
2024/02/24 09:00:34;;;;;;;1.55;0.80;;;;;;;;;;5052072;28;20052;-60
2024/02/24 09:03:01;;;;;;;1.42;0.77;;;;;;;;;;5052426;28;20056;-61
2024/02/24 09:05:27;;;;;;;1.50;0.80;;;;;;;;;;5052111;28;20067;-60
2024/02/24 09:07:54;;;;;;;1.88;0.90;;;;;;;;;;5052152;28;20049;-60
2024/02/24 09:10:21;;;;;;;1.95;0.93;;;;;;;;;;5052191;28;20045;-60
2024/02/24 09:12:48;;;;;;;1.73;0.90;;;;;;;;;;5051501;28;20064;-60
2024/02/24 09:15:16;;;;;;;1.17;0.80;;;;;;;;;;5052202;28;20060;-59
2024/02/24 09:17:43;;;;;;;2.38;0.70;;;;;;;;;;5052241;28;20060;-59
2024/02/24 09:20:10;;;;;;;1.73;0.80;;;;;;;;;;5051803;28;20056;-60
2024/02/24 09:22:37;;;;;;;1.58;0.80;;;;;;;;;;5052397;28;20053;-62
2024/02/24 09:25:04;;;;;;;1.30;0.80;;;;;;;;;;5052112;28;20060;-60
2024/02/24 09:27:33;;;;;;;1.52;0.93;;;;;;;;;;5052387;28;20056;-61
2024/02/24 09:30:00;;;;;;;1.27;0.77;;;;;;;;;;5051847;28;20487;-60
2024/02/24 09:32:28;;;;;;;1.40;0.98;;;;;;;;;;5051980;28;20419;-60
2024/02/24 09:34:55;;;;;;;2.85;1.00;;;;;;;;;;5055184;28;20053;-60
2024/02/24 09:37:21;;;;;;;1.60;1.00;;;;;;;;;;5055856;28;20056;-60
2024/02/24 09:39:48;;;;;;;2.20;1.10;;;;;;;;;;5055792;28;20053;-61
2024/02/24 09:42:15;;;;;;;2.60;1.10;;;;;;;;;;5055772;28;20160;-60
2024/02/24 09:44:42;;;;;;;5.20;1.40;;;;;;;;;;5055410;28;20053;-60
2024/02/24 09:47:09;;;;;;;2.42;1.50;;;;;;;;;;5055270;28;20067;-61
2024/02/24 09:49:37;;;;;;;3.00;1.88;;;;;;;;;;5055430;28;20072;-61
2024/02/24 09:52:04;;;;;;;1.88;1.50;;;;;;;;;;5055510;28;20055;-61
2024/02/24 09:54:31;;;;;;;3.10;1.60;;;;;;;;;;5055776;28;20076;-61
2024/02/24 09:56:57;;;;;;;2.78;1.42;;;;;;;;;;5055397;28;20053;-60
2024/02/24 09:59:25;;;;;;;2.35;1.50;;;;;;;;;;5053634;28;20057;-60
2024/02/24 10:01:52;;;;;;;3.50;1.77;;;;;;;;;;5033240;28;20049;-60
2024/02/24 10:04:19;;;;;;;2.47;1.80;;;;;;;;;;5032673;28;20057;-60
2024/02/24 10:06:47;;;;;;;2.47;1.40;;;;;;;;;;5027550;28;20046;-60
2024/02/24 10:09:14;;;;;;;2.97;1.70;;;;;;;;;;5027288;28;20053;-60
2024/02/24 10:11:41;;;;;;;3.35;1.70;;;;;;;;;;5023512;28;20056;-61
2024/02/24 10:14:08;;;;;;;2.20;1.50;;;;;;;;;;5034002;28;20057;-60
2024/02/24 10:16:35;;;;;;;2.47;1.33;;;;;;;;;;5030243;28;20168;-61
2024/02/24 10:19:04;;;;;;;2.03;1.15;;;;;;;;;;5030234;28;20056;-61
2024/02/24 10:21:31;;;;;;;2.83;1.42;;;;;;;;;;5033772;28;20072;-60
2024/02/24 10:23:59;;;;;;;1.73;1.20;;;;;;;;;;5034233;28;20424;-61
2024/02/24 10:26:26;;;;;;;2.13;1.38;;;;;;;;;;5033479;28;20060;-61
2024/02/24 10:28:53;;;;;;;2.50;1.40;;;;;;;;;;5033481;28;20401;-61
2024/02/24 10:31:21;;;;;;;1.92;1.00;;;;;;;;;;5031834;28;20365;-60
2024/02/24 10:33:48;;;;;;;1.88;1.10;;;;;;;;;;5030820;28;20560;-59
2024/02/24 10:36:15;;;;;;;1.60;0.90;;;;;;;;;;5029271;28;20054;-60
2024/02/24 10:38:43;;;;;;;1.60;1.10;;;;;;;;;;5032246;28;20053;-61
2024/02/24 10:41:11;;;;;;;1.92;1.00;;;;;;;;;;5032784;28;20431;-60
2024/02/24 10:43:39;;;;;;;1.40;0.60;;;;;;;;;;5033116;28;20404;-60
2024/02/24 10:46:05;;;;;;;2.30;0.88;;;;;;;;;;5031109;28;20080;-61
2024/02/24 10:48:32;;;;;;;1.15;0.60;;;;;;;;;;5033026;28;20376;-60
2024/02/24 10:50:59;;;;;;;1.48;0.60;;;;;;;;;;5028556;28;20163;-61
2024/02/24 10:53:28;;;;;;;1.10;0.50;;;;;;;;;;5014687;28;20412;-61
2024/02/24 10:55:55;;;;;;;0.82;0.50;;;;;;;;;;5017099;28;20053;-61
2024/02/24 10:58:24;;;;;;;1.40;0.50;;;;;;;;;;5022446;28;20061;-61
2024/02/24 11:00:53;;;;;;;0.98;0.50;;;;;;;;;;5031019;28;20049;-60
2024/02/24 11:03:20;;;;;;;1.08;0.50;;;;;;;;;;5033053;28;20504;-60
2024/02/24 11:05:48;;;;;;;1.23;0.68;;;;;;;;;;5014916;28;20515;-60
2024/02/24 11:08:33;;;;;;;1.33;0.60;;;;;;;;;;5018469;28;20053;-61
2024/02/24 11:11:03;;;;;;;1.92;0.90;;;;;;;;;;5034264;28;20053;-61
2024/02/24 11:13:31;;;;;;;1.30;0.80;;;;;;;;;;5034012;28;20065;-61
2024/02/24 11:15:58;;;;;;;2.20;0.90;;;;;;;;;;5033819;28;20496;-61
2024/02/24 11:18:40;;;;;;;3.75;1.00;;;;;;;;;;5034092;28;20393;-61
2024/02/24 11:21:07;;;;;;;3.47;1.35;;;;;;;;;;5013046;28;20054;-62
2024/02/24 11:23:36;;;;;;;1.95;1.23;;;;;;;;;;5014022;28;20050;-63
2024/02/24 11:26:21;;;;;;;2.28;1.40;;;;;;;;;;5019296;28;20519;-62
2024/02/24 11:28:59;;;;;;;2.30;1.70;;;;;;;;;;5031949;28;20049;-62
2024/02/24 11:31:28;;;;;;;3.33;1.73;;;;;;;;;;5034161;28;20049;-62
2024/02/24 11:33:58;;;;;;;2.45;1.50;;;;;;;;;;5032437;28;20436;-62
2024/02/24 11:36:25;;;;;;;1.58;1.20;;;;;;;;;;5034014;28;20057;-62
2024/02/24 11:38:52;;;;;;;2.20;1.30;;;;;;;;;;5033961;28;20484;-62
2024/02/24 11:41:19;;;;;;;2.78;1.50;;;;;;;;;;5032993;28;20049;-61
2024/02/24 11:43:46;;;;;;;2.55;1.50;;;;;;;;;;5032893;28;20060;-61
2024/02/24 11:46:14;;;;;;;1.90;1.30;;;;;;;;;;5032882;28;20068;-60
2024/02/24 11:48:41;;;;;;;1.88;1.42;;;;;;;;;;5033175;28;20080;-60
2024/02/24 11:51:07;;;;;;;1.60;1.20;;;;;;;;;;5031721;28;20054;-61
2024/02/24 11:53:34;;;;;;;3.40;1.40;;;;;;;;;;5031374;28;20481;-61
2024/02/24 11:56:02;;;;;;;1.92;1.30;;;;;;;;;;5031536;28;20060;-61
2024/02/24 11:58:29;;;;;;;3.63;1.55;;;;;;;;;;5031340;28;20060;-61
2024/02/24 12:00:56;;;;;;;3.10;1.42;;;;;;;;;;5032286;28;20412;-61
2024/02/24 12:03:24;;;;;;;3.10;1.50;;;;;;;;;;5031114;28;20053;-61
2024/02/24 12:05:51;;;;;;;1.75;1.10;;;;;;;;;;5021666;28;20077;-61
2024/02/24 12:08:19;;;;;;;1.98;1.10;;;;;;;;;;5028104;28;20050;-61
2024/02/24 12:10:46;;;;;;;2.65;1.15;;;;;;;;;;5012394;28;20058;-62
2024/02/24 12:13:13;;;;;;;1.98;0.80;;;;;;;;;;5011834;28;20050;-62
2024/02/24 12:15:41;;;;;;;2.10;1.10;;;;;;;;;;5012118;28;20381;-62
2024/02/24 12:18:08;;;;;;;3.08;0.88;;;;;;;;;;5012175;28;20129;-62
2024/02/24 12:20:37;;;;;;;2.90;1.10;;;;;;;;;;5020819;28;20068;-62
2024/02/24 12:23:04;;;;;;;;;;;;;;;;;;5032719;28;20456;-62
2024/02/24 12:25:31;;;;;;;3.72;1.00;;;;;;;;;;5032718;28;20356;-62
2024/02/24 12:27:59;;;;;;;2.53;0.90;;;;;;;;;;5033231;28;20057;-62
2024/02/24 12:30:26;;;;;;;3.22;0.95;;;;;;;;;;5032608;28;20501;-62
2024/02/24 12:32:53;;;;;;;2.20;0.80;;;;;;;;;;5032741;28;20056;-61
2024/02/24 12:35:22;;;;;;;2.08;1.10;;;;;;;;;;5031649;28;20057;-61
2024/02/24 12:37:52;;;;;;;2.83;1.15;;;;;;;;;;5032455;28;20065;-61
2024/02/24 12:40:28;;;;;;;1.88;1.00;;;;;;;;;;5032191;28;20049;-61
2024/02/24 12:42:56;;;;;;;1.75;0.60;;;;;;;;;;5032418;28;20052;-61
2024/02/24 12:45:23;;;;;;;1.20;0.60;;;;;;;;;;5032111;28;20392;-61
2024/02/24 12:47:50;;;;;;;1.38;0.70;;;;;;;;;;5032013;28;20057;-61
2024/02/24 12:50:18;;;;;;;1.20;0.60;;;;;;;;;;5031173;28;20069;-60
2024/02/24 12:52:44;;;;;;;1.42;0.50;;;;;;;;;;5031368;28;20053;-61
2024/02/24 12:55:13;;;;;;;1.20;0.50;;;;;;;;;;5031868;28;20390;-61
2024/02/24 12:57:40;;;;;;;2.25;0.63;;;;;;;;;;5031918;28;20060;-62
2024/02/24 13:00:07;;;;;;;2.35;0.70;;;;;;;;;;5031066;28;20395;-62
2024/02/24 13:02:34;;;;;;;1.38;0.40;;;;;;;;;;5030231;28;20448;-62
2024/02/24 13:05:01;;;;;;;1.05;0.50;;;;;;;;;;5011916;28;20061;-62
2024/02/24 13:07:28;;;;;;;1.10;0.52;;;;;;;;;;5011550;28;20508;-63
2024/02/24 13:09:55;;;;;;;1.95;0.90;;;;;;;;;;5011435;28;20512;-62
2024/02/24 13:12:23;;;;;;;1.35;0.60;;;;;;;;;;5017188;28;20412;-62
2024/02/24 13:14:50;;;;;;;1.98;0.60;;;;;;;;;;5031034;28;20061;-62
2024/02/24 13:17:17;;;;;;;1.05;0.60;;;;;;;;;;5030179;28;20056;-62
2024/02/24 13:19:44;;;;;;;1.90;0.73;;;;;;;;;;5031505;28;20487;-62
2024/02/24 13:22:10;;;;;;;2.60;0.70;;;;;;;;;;5031447;28;20068;-62
2024/02/24 13:24:37;;;;;;;1.48;0.60;;;;;;;;;;5031351;28;20061;-62
2024/02/24 13:27:04;;;;;;;1.85;0.55;;;;;;;;;;5031478;28;20480;-62
2024/02/24 13:29:32;;;;;;;1.98;0.70;;;;;;;;;;5031043;28;20053;-62
2024/02/24 13:31:59;;;;;;;2.03;0.60;;;;;;;;;;5031497;28;20060;-62
2024/02/24 13:34:25;;;;;;;1.50;0.70;;;;;;;;;;5029314;28;20079;-62
2024/02/24 13:36:52;;;;;;;2.00;0.82;;;;;;;;;;5031392;28;20054;-61
2024/02/24 13:39:19;;;;;;;1.58;0.65;;;;;;;;;;5031284;28;20056;-61
2024/02/24 13:41:46;;;;;;;2.33;0.75;;;;;;;;;;5016682;28;20073;-61
2024/02/24 13:44:13;;;;;;;1.25;0.60;;;;;;;;;;5025640;28;20049;-61
2024/02/24 13:46:41;;;;;;;2.83;0.93;;;;;;;;;;5031295;28;20049;-61
2024/02/24 13:49:11;;;;;;;1.08;0.52;;;;;;;;;;5026918;28;20492;-61
2024/02/24 13:51:38;;;;;;;1.73;0.60;;;;;;;;;;5030990;28;20050;-61
2024/02/24 13:54:05;;;;;;;2.30;0.82;;;;;;;;;;5030904;28;20408;-61
2024/02/24 13:56:32;;;;;;;1.30;0.70;;;;;;;;;;5031256;28;20060;-61
2024/02/24 13:59:00;;;;;;;1.75;0.60;;;;;;;;;;5029676;28;20088;-61
2024/02/24 14:01:26;;;;;;;1.92;0.70;;;;;;;;;;5029939;28;20057;-61
2024/02/24 14:03:55;;;;;;;1.08;0.65;;;;;;;;;;5019479;28;20516;-61
2024/02/24 14:06:21;;;;;;;1.92;1.00;;;;;;;;;;5028675;28;20065;-61
2024/02/24 14:08:48;;;;;;;1.35;0.68;;;;;;;;;;5031294;28;20053;-61
2024/02/24 14:11:15;;;;;;;1.60;0.70;;;;;;;;;;5030381;28;20060;-61
2024/02/24 14:13:42;;;;;;;2.10;0.90;;;;;;;;;;5029156;28;20061;-61
2024/02/24 14:16:09;;;;;;;1.52;0.77;;;;;;;;;;5030806;28;20058;-61
2024/02/24 14:18:36;;;;;;;1.83;0.70;;;;;;;;;;5028986;28;20049;-61
2024/02/24 14:21:04;;;;;;;3.60;0.85;;;;;;;;;;5034471;28;20057;-61
2024/02/24 14:23:32;;;;;;;1.90;0.82;;;;;;;;;;5034825;28;20060;-60
2024/02/24 14:25:59;;;;;;;2.25;0.77;;;;;;;;;;5035141;28;20416;-61
2024/02/24 14:28:25;;;;;;;1.55;0.73;;;;;;;;;;5034322;28;20057;-61
2024/02/24 14:30:52;;;;;;;2.50;0.90;;;;;;;;;;5034373;28;20053;-61
2024/02/24 14:33:18;;;;;;;1.00;0.60;;;;;;;;;;5031709;28;20070;-61
2024/02/24 14:35:45;;;;;;;2.33;0.70;;;;;;;;;;5034375;28;20460;-61
2024/02/24 14:38:13;;;;;;;1.27;0.70;;;;;;;;;;5034891;28;20057;-60
2024/02/24 14:40:40;;;;;;;1.23;0.60;;;;;;;;;;5034244;28;20061;-61
2024/02/24 14:43:06;;;;;;;1.02;0.60;;;;;;;;;;5034497;28;20041;-61